createdAt,value
2019-05-29T00:00:09.895Z,95.20
2019-05-29T00:03:18.727Z,94.90
2019-05-29T00:06:27.399Z,95.10
2019-05-29T00:09:46.305Z,94.80
2019-05-29T00:12:55.027Z,95.50
2019-05-29T00:16:03.828Z,95.40
2019-05-29T00:19:12.711Z,95.30
2019-05-29T00:22:21.693Z,95.30
2019-05-29T00:25:41.832Z,95.40
2019-05-29T00:28:50.354Z,95.30
2019-05-29T00:31:58.882Z,95.70
2019-05-29T00:35:17.981Z,95.80
2019-05-29T00:38:36.918Z,95.60
2019-05-29T00:41:45.549Z,95.60
2019-05-29T00:44:54.152Z,95.90
2019-05-29T00:48:02.833Z,95.60
2019-05-29T00:51:11.595Z,96.00
2019-05-29T00:54:20.198Z,95.70
2019-05-29T00:57:28.873Z,95.90
2019-05-29T01:00:37.683Z,96.10
2019-05-29T01:03:46.200Z,96.00
2019-05-29T01:07:05.022Z,95.50
2019-05-29T01:10:14.686Z,95.90
2019-05-29T01:13:23.732Z,96.30
2019-05-29T01:16:32.337Z,96.30
2019-05-29T01:19:39.658Z,96.40
2019-05-29T01:22:48.206Z,96.50
2019-05-29T01:25:56.812Z,96.80
2019-05-29T01:29:15.619Z,96.90
2019-05-29T01:32:24.272Z,97.10
2019-05-29T01:35:32.896Z,96.80
2019-05-29T01:38:41.550Z,97.00
2019-05-29T01:41:50.235Z,96.80
2019-05-29T01:45:07.864Z,96.50
2019-05-29T01:48:09.248Z,96.80
2019-05-29T01:51:17.750Z,96.70
2019-05-29T01:54:26.402Z,96.60
2019-05-29T01:57:46.305Z,97.10
2019-05-29T02:00:54.919Z,97.20
2019-05-29T02:04:03.566Z,97.40
2019-05-29T02:07:11.341Z,97.60
2019-05-29T02:10:20.300Z,97.90
2019-05-29T02:13:29.223Z,97.70
2019-05-29T02:16:37.802Z,97.70
2019-05-29T02:19:46.554Z,97.50
2019-05-29T02:22:55.455Z,97.30
2019-05-29T02:26:04.180Z,97.20
2019-05-29T02:29:12.832Z,97.00
2019-05-29T02:32:21.422Z,97.50
2019-05-29T02:35:30.023Z,97.50
2019-05-29T02:38:38.853Z,97.70
2019-05-29T02:41:47.557Z,97.20
2019-05-29T02:44:56.163Z,97.50
2019-05-29T02:48:15.028Z,97.30
2019-05-29T02:51:24.277Z,97.10
2019-05-29T02:54:33.012Z,97.40
2019-05-29T02:57:52.028Z,97.30
2019-05-29T03:01:00.911Z,97.50
2019-05-29T03:04:09.520Z,97.40
2019-05-29T03:07:18.217Z,97.70
2019-05-29T03:10:26.912Z,96.90
2019-05-29T03:13:35.581Z,96.80
2019-05-29T03:16:44.244Z,96.70
2019-05-29T03:19:52.953Z,96.90
2019-05-29T03:23:01.570Z,96.90
2019-05-29T03:26:10.183Z,96.80
2019-05-29T03:29:18.859Z,96.80
2019-05-29T03:32:30.469Z,96.80
2019-05-29T03:35:48.794Z,97.00
2019-05-29T03:38:57.914Z,96.90
2019-05-29T03:42:06.544Z,96.70
2019-05-29T03:45:16.649Z,97.10
2019-05-29T03:48:25.945Z,97.10
2019-05-29T03:51:37.210Z,97.20
2019-05-29T03:54:46.592Z,97.00
2019-05-29T03:57:55.343Z,97.00
2019-05-29T04:01:04.146Z,97.20
2019-05-29T04:04:12.758Z,97.10
2019-05-29T04:07:21.490Z,97.10
2019-05-29T04:10:32.849Z,97.20
2019-05-29T04:13:41.486Z,97.10
2019-05-29T04:16:59.335Z,97.00
2019-05-29T04:20:02.374Z,97.10
2019-05-29T04:23:10.934Z,97.00
2019-05-29T04:26:21.190Z,96.60
2019-05-29T04:29:30.124Z,96.50
2019-05-29T04:32:38.858Z,96.70
2019-05-29T04:35:47.636Z,96.50
2019-05-29T04:38:56.444Z,96.10
2019-05-29T04:42:05.199Z,95.70
2019-05-29T04:45:14.121Z,95.70
2019-05-29T04:48:24.246Z,95.40
2019-05-29T04:51:33.120Z,95.30
2019-05-29T04:54:41.918Z,95.20
2019-05-29T04:57:51.097Z,94.50
2019-05-29T05:00:59.894Z,94.40
2019-05-29T05:04:08.524Z,93.90
2019-05-29T05:07:17.169Z,94.20
2019-05-29T05:10:41.428Z,94.30
2019-05-29T05:13:50.349Z,94.30
2019-05-29T05:17:00.518Z,93.90
2019-05-29T05:20:19.318Z,93.60
2019-05-29T05:23:28.002Z,93.60
2019-05-29T05:26:36.819Z,93.90
2019-05-29T05:29:45.572Z,93.90
2019-05-29T05:32:54.233Z,93.20
2019-05-29T05:36:01.417Z,92.30
2019-05-29T05:39:10.285Z,92.20
2019-05-29T05:42:19.992Z,91.90
2019-05-29T05:45:28.592Z,90.40
2019-05-29T05:48:47.463Z,89.30
2019-05-29T05:51:56.089Z,88.00
2019-05-29T05:55:04.872Z,86.60
2019-05-29T05:58:13.546Z,86.70
2019-05-29T06:01:22.168Z,84.20
2019-05-29T06:04:31.810Z,85.30
2019-05-29T06:07:50.755Z,86.30
2019-05-29T06:11:01.053Z,84.60
2019-05-29T06:14:09.768Z,85.20
2019-05-29T06:17:21.792Z,82.80
2019-05-29T06:20:28.866Z,82.70
2019-05-29T06:23:38.952Z,82.00
2019-05-29T06:26:47.606Z,80.40
2019-05-29T06:29:56.243Z,81.70
2019-05-29T06:33:05.049Z,81.40
2019-05-29T06:36:13.634Z,82.20
2019-05-29T06:39:22.563Z,82.30
2019-05-29T06:42:31.207Z,82.90
2019-05-29T06:45:40.104Z,81.30
2019-05-29T06:49:01.053Z,81.10
2019-05-29T06:52:19.816Z,81.60
2019-05-29T06:55:28.541Z,82.60
2019-05-29T06:58:38.091Z,83.60
2019-05-29T07:01:47.673Z,82.00
2019-05-29T07:04:56.405Z,81.70
2019-05-29T07:08:18.317Z,80.70
2019-05-29T07:11:14.142Z,80.70
2019-05-29T07:14:23.157Z,81.50
2019-05-29T07:17:32.992Z,81.90
2019-05-29T07:20:42.704Z,82.50
2019-05-29T07:23:51.708Z,81.80
2019-05-29T07:27:00.281Z,82.10
2019-05-29T07:30:09.935Z,83.30
2019-05-29T07:33:19.052Z,80.60
2019-05-29T07:36:28.829Z,81.20
2019-05-29T07:39:37.459Z,80.40
2019-05-29T07:42:53.673Z,80.70
2019-05-29T07:45:56.413Z,81.30
2019-05-29T07:49:05.048Z,79.70
2019-05-29T07:52:23.928Z,80.50
2019-05-29T07:55:43.164Z,82.40
2019-05-29T07:59:01.540Z,82.20
2019-05-29T08:02:02.284Z,82.20
2019-05-29T08:05:13.184Z,81.80
2019-05-29T08:08:32.140Z,82.10
2019-05-29T08:11:41.513Z,81.50
2019-05-29T08:14:51.882Z,81.40
2019-05-29T08:18:00.656Z,81.00
2019-05-29T08:21:19.415Z,82.00
2019-05-29T08:24:28.079Z,83.30
2019-05-29T08:27:36.727Z,83.20
2019-05-29T08:30:51.364Z,84.50
2019-05-29T08:33:56.269Z,83.20
2019-05-29T08:37:07.301Z,82.30
2019-05-29T08:40:14.571Z,81.90
2019-05-29T08:43:23.170Z,83.40
2019-05-29T08:47:00.727Z,83.60
2019-05-29T08:49:54.421Z,82.50
2019-05-29T08:53:13.148Z,82.60
2019-05-29T08:56:21.703Z,80.30
2019-05-29T08:59:30.340Z,80.30
2019-05-29T09:02:38.867Z,81.10
2019-05-29T09:06:04.298Z,79.30
2019-05-29T09:08:57.795Z,79.70
2019-05-29T09:12:16.583Z,79.80
2019-05-29T09:15:25.296Z,80.10
2019-05-29T09:18:34.024Z,81.20
2019-05-29T09:21:42.625Z,81.60
2019-05-29T09:24:51.528Z,81.70
2019-05-29T09:28:00.165Z,81.50
2019-05-29T09:31:08.844Z,81.00
2019-05-29T09:34:18.761Z,81.30
2019-05-29T09:37:28.259Z,79.70
2019-05-29T09:40:37.084Z,75.60
2019-05-29T09:43:58.152Z,75.20
2019-05-29T09:46:56.056Z,77.20
2019-05-29T09:50:07.748Z,75.90
2019-05-29T09:53:16.390Z,74.40
2019-05-29T09:56:25.049Z,74.70
2019-05-29T09:59:43.820Z,70.80
2019-05-29T10:02:52.796Z,72.50
2019-05-29T10:06:04.069Z,72.10
2019-05-29T10:09:16.182Z,72.70
2019-05-29T10:12:24.402Z,71.90
2019-05-29T10:15:33.027Z,71.20
2019-05-29T10:18:52.260Z,71.10
2019-05-29T10:22:12.776Z,69.50
2019-05-29T10:25:31.802Z,70.00
2019-05-29T10:28:55.347Z,71.60
2019-05-29T10:32:01.353Z,70.80
2019-05-29T10:35:10.293Z,70.20
2019-05-29T10:38:18.925Z,70.30
2019-05-29T10:41:28.647Z,70.40
2019-05-29T10:44:37.431Z,69.20
2019-05-29T10:47:47.310Z,68.60
2019-05-29T10:51:06.224Z,67.40
2019-05-29T10:54:15.455Z,69.30
2019-05-29T10:57:34.347Z,70.90
2019-05-29T11:00:42.989Z,70.90
2019-05-29T11:03:52.316Z,70.40
2019-05-29T11:07:01.936Z,70.30
2019-05-29T11:10:13.627Z,72.00
2019-05-29T11:13:22.306Z,73.60
2019-05-29T11:16:32.262Z,73.40
2019-05-29T11:19:51.282Z,72.70
2019-05-29T11:22:59.924Z,70.80
2019-05-29T11:26:08.625Z,72.30
2019-05-29T11:29:17.280Z,72.70
2019-05-29T11:32:26.002Z,70.90
2019-05-29T11:35:34.765Z,69.90
2019-05-29T11:38:43.805Z,70.10
2019-05-29T11:41:52.712Z,69.20
2019-05-29T11:45:03.753Z,69.00
2019-05-29T11:48:22.877Z,69.80
2019-05-29T11:51:44.222Z,67.20
2019-05-29T11:54:55.939Z,66.50
2019-05-29T11:58:02.427Z,64.90
2019-05-29T12:01:11.718Z,64.90
2019-05-29T12:04:26.387Z,64.00
2019-05-29T12:07:30.591Z,63.90
2019-05-29T12:10:39.185Z,64.80
2019-05-29T12:13:47.847Z,65.80
2019-05-29T12:16:58.067Z,67.80
2019-05-29T12:20:26.475Z,66.00
2019-05-29T12:23:26.137Z,67.00
2019-05-29T12:26:29.457Z,64.70
2019-05-29T12:29:38.147Z,65.00
2019-05-29T12:32:45.276Z,65.00
2019-05-29T12:35:54.866Z,65.30
2019-05-29T12:39:04.248Z,61.20
2019-05-29T12:42:13.317Z,58.50
2019-05-29T12:45:21.992Z,57.70
2019-05-29T12:48:30.646Z,59.50
2019-05-29T12:51:37.669Z,60.90
2019-05-29T12:54:46.325Z,60.70
2019-05-29T12:58:05.586Z,59.70
2019-05-29T13:01:13.213Z,58.80
2019-05-29T13:04:21.855Z,57.00
2019-05-29T13:07:30.592Z,56.90
2019-05-29T13:10:38.225Z,55.90
2019-05-29T13:13:46.848Z,56.20
2019-05-29T13:16:56.653Z,55.00
2019-05-29T13:20:31.223Z,52.30
2019-05-29T13:34:38.999Z,52.60
2019-05-29T13:37:50.696Z,53.30
2019-05-29T13:41:00.408Z,52.70
2019-05-29T13:44:09.351Z,53.70
2019-05-29T13:47:21.492Z,54.30
2019-05-29T13:50:30.129Z,54.10
2019-05-29T13:53:38.907Z,54.10
2019-05-29T13:56:47.832Z,53.60
2019-05-29T13:59:57.904Z,54.60
2019-05-29T14:03:07.639Z,53.80
2019-05-29T14:06:17.218Z,54.80
2019-05-29T14:09:25.933Z,54.80
2019-05-29T14:12:44.673Z,55.90
2019-05-29T14:15:53.229Z,54.90
2019-05-29T14:19:02.766Z,55.70
2019-05-29T14:22:11.537Z,55.50
2019-05-29T14:25:36.476Z,55.60
2019-05-29T14:28:45.115Z,55.40
2019-05-29T14:31:53.717Z,56.20
2019-05-29T14:35:04.258Z,56.50
2019-05-29T14:38:15.083Z,55.30
2019-05-29T14:41:23.052Z,54.10
2019-05-29T14:44:31.774Z,53.20
2019-05-29T14:47:40.546Z,54.60
2019-05-29T14:50:49.211Z,55.40
2019-05-29T14:53:58.007Z,55.40
2019-05-29T14:57:19.486Z,55.10
2019-05-29T15:00:25.176Z,55.70
2019-05-29T15:03:40.445Z,55.70
2019-05-29T15:06:49.012Z,55.30
2019-05-29T15:09:57.621Z,55.90
2019-05-29T15:13:06.734Z,57.20
2019-05-29T15:16:15.789Z,57.30
2019-05-29T15:19:24.381Z,56.60
2019-05-29T15:22:32.960Z,56.20
2019-05-29T15:25:41.571Z,56.40
2019-05-29T15:28:50.121Z,56.70
2019-05-29T15:31:58.789Z,55.50
2019-05-29T15:35:12.686Z,56.30
2019-05-29T15:38:18.483Z,56.10
2019-05-29T15:41:27.106Z,55.10
2019-05-29T15:44:35.887Z,55.60
2019-05-29T15:47:43.627Z,55.80
2019-05-29T15:50:52.760Z,55.10
2019-05-29T15:54:35.292Z,55.40
2019-05-29T15:57:44.076Z,54.40
2019-05-29T16:00:51.380Z,54.60
2019-05-29T16:04:00.195Z,53.70
2019-05-29T16:07:09.862Z,53.60
2019-05-29T16:10:20.881Z,54.20
2019-05-29T16:13:29.484Z,54.90
2019-05-29T16:16:38.036Z,54.10
2019-05-29T16:19:46.813Z,53.90
2019-05-29T16:22:57.223Z,53.40
2019-05-29T16:26:05.975Z,54.10
2019-05-29T16:29:16.387Z,53.30
2019-05-29T16:32:26.825Z,54.30
2019-05-29T16:35:37.415Z,54.00
2019-05-29T16:38:45.903Z,54.50
2019-05-29T16:41:54.461Z,55.20
2019-05-29T16:45:03.127Z,56.40
2019-05-29T16:48:25.963Z,55.00
2019-05-29T16:51:34.624Z,54.80
2019-05-29T16:54:43.371Z,53.30
2019-05-29T16:57:52.378Z,53.10
2019-05-29T17:01:00.946Z,52.80
2019-05-29T17:04:09.882Z,52.80
2019-05-29T17:07:18.560Z,52.80
2019-05-29T17:10:37.216Z,52.90
2019-05-29T17:13:45.785Z,52.80
2019-05-29T17:16:54.461Z,53.30
2019-05-29T17:20:03.401Z,53.50
2019-05-29T17:23:12.147Z,53.00
2019-05-29T17:26:20.841Z,52.60
2019-05-29T17:29:29.542Z,53.50
2019-05-29T17:32:38.181Z,54.10
2019-05-29T17:35:46.838Z,54.00
2019-05-29T17:38:55.661Z,53.20
2019-05-29T17:42:04.371Z,53.40
2019-05-29T17:45:14.118Z,54.00
2019-05-29T17:48:23.864Z,53.60
2019-05-29T17:51:32.606Z,54.20
2019-05-29T17:54:40.885Z,54.50
2019-05-29T17:58:03.624Z,54.60
2019-05-29T18:01:12.397Z,54.70
2019-05-29T18:04:22.469Z,54.60
2019-05-29T18:07:31.279Z,55.20
2019-05-29T18:10:39.818Z,56.90
2019-05-29T18:13:48.340Z,55.50
2019-05-29T18:16:56.866Z,55.90
2019-05-29T18:20:17.732Z,57.60
2019-05-29T18:23:36.640Z,57.60
2019-05-29T18:26:47.186Z,59.20
2019-05-29T18:29:55.468Z,60.70
2019-05-29T18:33:04.246Z,61.30
2019-05-29T18:36:12.864Z,60.50
2019-05-29T18:39:22.169Z,59.70
2019-05-29T18:42:30.977Z,59.00
2019-05-29T18:45:39.860Z,57.90
2019-05-29T18:48:49.027Z,63.20
2019-05-29T18:52:15.614Z,64.60
2019-05-29T18:55:25.334Z,65.30
2019-05-29T18:58:35.875Z,63.50
2019-05-29T19:01:45.987Z,64.50
2019-05-29T19:04:55.670Z,65.20
2019-05-29T19:08:05.653Z,66.00
2019-05-29T19:11:14.850Z,66.70
2019-05-29T19:14:25.821Z,67.10
2019-05-29T19:17:35.981Z,67.20
2019-05-29T19:20:56.653Z,66.20
2019-05-29T19:24:05.182Z,65.70
2019-05-29T19:27:12.749Z,67.40
2019-05-29T19:30:33.026Z,67.40
2019-05-29T19:33:41.981Z,68.70
2019-05-29T19:36:50.819Z,68.70
2019-05-29T19:39:59.926Z,69.80
2019-05-29T19:43:08.973Z,70.40
2019-05-29T19:46:28.583Z,71.80
2019-05-29T19:49:47.646Z,72.90
2019-05-29T19:53:07.182Z,73.30
2019-05-29T19:56:27.525Z,72.40
2019-05-29T19:59:36.388Z,73.50
2019-05-29T20:02:45.302Z,75.80
2019-05-29T20:05:55.056Z,74.40
2019-05-29T20:09:04.275Z,73.20
2019-05-29T20:12:12.148Z,73.60
2019-05-29T20:15:31.975Z,73.90
2019-05-29T20:18:41.225Z,71.00
2019-05-29T20:21:49.389Z,71.30
2019-05-29T20:25:09.008Z,72.30
2019-05-29T20:28:17.768Z,69.10
2019-05-29T20:31:26.288Z,68.10
2019-05-29T20:34:47.007Z,67.40
2019-05-29T20:38:06.729Z,69.90
2019-05-29T20:41:15.699Z,69.00
2019-05-29T20:44:24.837Z,70.70
2019-05-29T20:47:33.662Z,71.80
2019-05-29T20:50:43.327Z,72.20
2019-05-29T20:54:03.056Z,71.70
2019-05-29T20:57:12.339Z,69.70
2019-05-29T21:00:21.253Z,70.40
2019-05-29T21:03:30.617Z,71.20
2019-05-29T21:07:06.317Z,69.70
2019-05-29T21:10:15.700Z,69.30
2019-05-29T21:13:24.921Z,68.60
2019-05-29T21:16:34.059Z,69.20
2019-05-29T21:19:44.623Z,70.80
2019-05-29T21:22:53.420Z,70.50
2019-05-29T21:26:01.966Z,69.10
2019-05-29T21:29:10.540Z,69.90
2019-05-29T21:32:48.962Z,70.80
2019-05-29T21:35:57.508Z,71.00
2019-05-29T21:39:09.477Z,71.20
2019-05-29T21:42:18.012Z,72.00
2019-05-29T21:45:26.500Z,72.10
2019-05-29T21:48:35.036Z,72.80
2019-05-29T21:51:53.839Z,72.30
2019-05-29T21:55:02.380Z,72.30
2019-05-29T21:58:11.069Z,72.10
2019-05-29T22:01:18.307Z,72.60
2019-05-29T22:04:26.925Z,73.10
2019-05-29T22:07:35.718Z,73.50
2019-05-29T22:10:44.912Z,74.30
2019-05-29T22:13:54.404Z,74.60
2019-05-29T22:17:13.144Z,75.00
2019-05-29T22:20:21.719Z,75.30
2019-05-29T22:23:30.228Z,75.80
2019-05-29T22:26:38.750Z,76.00
2019-05-29T22:29:47.394Z,76.70
2019-05-29T22:33:06.220Z,77.20
2019-05-29T22:36:14.827Z,78.30
2019-05-29T22:39:23.508Z,78.80
2019-05-29T22:42:32.013Z,80.30
2019-05-29T22:45:40.640Z,80.60
2019-05-29T22:48:47.840Z,81.30
2019-05-29T22:51:56.441Z,81.70
2019-05-29T22:55:06.593Z,81.90
2019-05-29T22:58:27.516Z,83.20
2019-05-29T23:01:36.146Z,83.20
2019-05-29T23:04:44.684Z,83.40
2019-05-29T23:07:54.128Z,84.10
2019-05-29T23:11:13.168Z,84.60
2019-05-29T23:14:22.399Z,85.30
2019-05-29T23:17:31.102Z,86.30
2019-05-29T23:20:49.993Z,86.70
2019-05-29T23:24:09.260Z,86.90
2019-05-29T23:27:17.934Z,87.70
2019-05-29T23:30:29.767Z,87.70
2019-05-29T23:33:37.034Z,88.30
2019-05-29T23:36:45.664Z,88.60
2019-05-29T23:39:55.050Z,89.30
2019-05-29T23:43:03.732Z,90.10
2019-05-29T23:46:23.049Z,90.10
2019-05-29T23:49:33.114Z,90.40
2019-05-29T23:52:41.779Z,90.70
2019-05-29T23:55:50.444Z,90.90
2019-05-29T23:58:59.926Z,91.10
